ENRA

Mo i Rana , Røssvoll Airport

Mo i Rana, Norway
METAR ENRA 161350Z VRB01KT 9999 -SN FEW015 BKN025 M09/M10 Q1002
Observed Flight Rules
Dec-16 @ 13:50 UTC (59 minutes ago) Marginal Visual Flight Rules
Wind Visibility Clouds Conditions
Variable at 1 knots 10,000+ meters
  • Few at 1,500' AGL
  • Broken at 2,500' AGL
  • Light Snow
Temperatures Readings
Current -9°C / 16°F
Dewpoint -10°C / 14°F
Humidity 93%
Altimeter 29.59" Hg
Pressure 1002 hPa
Elevation 70
METAR ENRA 161350Z VRB01KT 9999 -SN FEW015 BKN025 M09/M10 Q1002
Observed Flight Rules
Dec-16 @ 13:50 UTC
(59 minutes ago)
MVFR
Wind Visibility
Variable at 1 knots 10,000+ meters
Clouds
  • Few at 1,500' AGL
  • Broken at 2,500' AGL
Conditions
  • Light Snow
Temperature Dewpoint
-9°C / 16°F -10°C / 14°F
Humidity Altimeter Pressure
93% 29.59" Hg 1002 hPa